METAR AND TAF INFORMATION

METAR FOR GCXO
ADDS - METARS form results

(0909 UTC 29 September 2022)
Data provider http://aviationweather.gov/metar/data/
 
METAR text: GCXO 290900Z 33010KT 300V010 9999 FEW005 BKN010 19/17 Q1022 NOSIG
Conditions at: GCXO (TENERIFE/LOS ROD, ES) observed 0900 UTC 29 September 2022
Temperature: 19.0°C (66°F)
Dewpoint: 17.0°C (63°F) [RH = 88%]
Pressure (altimeter): 30.18 inches Hg (1022.0 mb)
Winds: from the NNW (330 degrees) at 12 MPH (10 knots; 5.1 m/s)
Visibility: 6 or more miles (10+ km)
Ceiling: 1000 feet AGL
Clouds: few clouds at 500 feet AGL
broken clouds at 1000 feet AGL
Weather: no significant weather observed at this time

METAR text: GCXO 290830Z 32010KT 290V350 9999 -DZ FEW001 BKN010 18/17 Q1022 NOSIG
Conditions at: GCXO (TENERIFE/LOS ROD, ES) observed 0830 UTC 29 September 2022
Temperature: 18.0°C (64°F)
Dewpoint: 17.0°C (63°F) [RH = 94%]
Pressure (altimeter): 30.18 inches Hg (1022.0 mb)
Winds: from the NW (320 degrees) at 12 MPH (10 knots; 5.1 m/s)
Visibility: 6 or more miles (10+ km)
Ceiling: 1000 feet AGL
Clouds: few clouds at 100 feet AGL
broken clouds at 1000 feet AGL
Weather: -DZ  (light drizzle)

Forecast for: GCXO (TENERIFE/LOS ROD, ES)
Text: TAF GCXO 290800Z 2909/3009 32014KT 9999 SCT010 TX22/2914Z TN16/3006Z
Forecast period: 0900 to 1300 UTC 29 September 2022
Forecast type: FROM: standard forecast or significant change
Winds: from the NW (320 degrees) at 16 MPH (14 knots; 7.2 m/s)
Visibility: 6 or more miles (10+ km)
Ceiling: at least 12,000 feet AGL
Clouds: scattered clouds at 1000 feet AGL
Weather: no significant weather forecast for this period
Text: BECMG 2913/2915 BKN010
Forecast period: 1300 UTC 29 September 2022 to 0900 UTC 30 September 2022
Forecast type: BECOMING: Conditions expected to become as follows by 1500 UTC 29 September 2022
Winds: from the NW (320 degrees) at 16 MPH (14 knots; 7.2 m/s)
Visibility: 6 or more miles (10+ km)
Ceiling: 1000 feet AGL
Clouds: broken clouds at 1000 feet AGL
Weather: no significant weather forecast for this period
Text: PROB40
Forecast period: 1500 UTC 29 September 2022 to 0900 UTC 30 September 2022
Forecast type: TEMPORARY: The following changes expected for less than half the time period
Visibility: 1.24 miles (2.00 km)
Ceiling: 400 feet AGL
Clouds: broken clouds at 400 feet AGL
Weather: DZ BCFG  (moderate drizzle, patches of fog)

 

AIRPORT MAP

 

RUNWAY INFORMATION

Runway 12 Runway length 11155 ft Runway width 148 ft
Runway elevation 2060 ft Runway displaced threshold 0 ft Runway heading 111
Runway 30 Runway length 11155 ft Runway width 148 ft
Runway elevation 2002 ft Runway displaced threshold 0 ft Runway heading 291

 

AIRPORT FREQUENCIES

Type APP Name APP Frequency 119.7 MHZ
Type ATIS Name ATIS Frequency 118.575 MHZ
Type GND Name GND Frequency 121.7 MHZ
Type TWR Name TWR Frequency 118.7 MHZ

 

AIRPORT NEAR NAVIGATION AIDS

Type VOR-DME Name Tenerife Norte Frequency 117700 KHZ
Type NDB Name Tenerife Norte Frequency 410 KHZ